createdAt,value
2023-05-08T00:00:39.093Z,101190.05
2023-05-08T00:02:57.712Z,101187.88
2023-05-08T00:05:08.643Z,101187.30
2023-05-08T00:07:17.991Z,101182.61
2023-05-08T00:09:27.374Z,101179.17
2023-05-08T00:11:36.839Z,101178.83
2023-05-08T00:13:46.593Z,101172.84
2023-05-08T00:15:55.766Z,101166.95
2023-05-08T00:18:05.273Z,101164.47
2023-05-08T00:20:16.617Z,101163.19
2023-05-08T00:22:26.072Z,101160.08
2023-05-08T00:24:35.601Z,101160.52
2023-05-08T00:26:44.861Z,101155.42
2023-05-08T00:28:54.035Z,101153.05
2023-05-08T00:31:05.257Z,101159.40
2023-05-08T00:33:14.507Z,101159.88
2023-05-08T00:35:24.113Z,101159.88
2023-05-08T00:37:33.189Z,101157.08
2023-05-08T00:39:42.633Z,101159.85
2023-05-08T00:41:51.843Z,101157.52
2023-05-08T00:44:01.982Z,101155.68
2023-05-08T00:46:11.941Z,101152.65
2023-05-08T00:48:21.362Z,101150.98
2023-05-08T00:50:30.975Z,101149.48
2023-05-08T00:52:41.207Z,101143.27
2023-05-08T00:54:51.068Z,101141.29
2023-05-08T00:57:00.266Z,101143.35
2023-05-08T00:59:13.631Z,101146.86
2023-05-08T01:01:23.080Z,101154.55
2023-05-08T01:03:32.900Z,101152.41
2023-05-08T01:05:42.665Z,101146.14
2023-05-08T01:07:52.288Z,101147.07
2023-05-08T01:10:01.654Z,101144.61
2023-05-08T01:12:19.460Z,101145.64
2023-05-08T01:14:51.787Z,101143.10
2023-05-08T01:17:12.035Z,101141.60
2023-05-08T01:20:00.357Z,101139.86
2023-05-08T01:22:34.126Z,101139.58
2023-05-08T01:25:09.701Z,101134.45
2023-05-08T01:27:57.470Z,101134.70
2023-05-08T01:30:33.898Z,101134.19
2023-05-08T01:32:45.590Z,101126.70
2023-05-08T01:35:05.379Z,101125.88
2023-05-08T01:37:18.969Z,101126.39
2023-05-08T01:39:38.614Z,101126.48
2023-05-08T01:41:56.721Z,101125.19
2023-05-08T01:44:15.921Z,101125.35
2023-05-08T01:46:29.984Z,101125.66
2023-05-08T01:48:46.384Z,101127.66
2023-05-08T01:51:02.787Z,101124.64
2023-05-08T01:53:18.767Z,101124.80
2023-05-08T01:55:32.284Z,101120.19
2023-05-08T01:57:48.525Z,101119.56
2023-05-08T01:59:59.779Z,101119.80
2023-05-08T02:02:11.528Z,101119.12
2023-05-08T02:04:22.133Z,101115.09
2023-05-08T02:06:33.884Z,101116.99
2023-05-08T02:08:42.908Z,101113.11
2023-05-08T02:10:54.179Z,101117.34
2023-05-08T02:13:06.755Z,101113.64
2023-05-08T02:15:18.167Z,101114.67
2023-05-08T02:17:28.919Z,101117.23
2023-05-08T02:19:41.717Z,101112.34
2023-05-08T02:21:53.389Z,101109.73
2023-05-08T02:24:01.529Z,101113.80
2023-05-08T02:26:14.059Z,101111.69
2023-05-08T02:28:25.164Z,101111.33
2023-05-08T02:30:35.346Z,101111.76
2023-05-08T02:32:48.441Z,101107.73
2023-05-08T02:35:03.677Z,101111.09
2023-05-08T02:37:16.194Z,101109.20
2023-05-08T02:39:31.684Z,101111.75
2023-05-08T02:41:46.814Z,101111.20
2023-05-08T02:43:57.945Z,101107.35
2023-05-08T02:46:16.365Z,101110.42
2023-05-08T02:48:30.708Z,101103.90
2023-05-08T02:50:47.452Z,101107.63
2023-05-08T02:53:05.029Z,101107.96
2023-05-08T02:55:25.298Z,101106.95
2023-05-08T02:57:41.909Z,101105.52
2023-05-08T02:59:58.985Z,101102.45
2023-05-08T03:02:24.698Z,101104.22
2023-05-08T03:04:41.604Z,101103.67
2023-05-08T03:06:52.328Z,101103.30
2023-05-08T03:09:05.414Z,101107.27
2023-05-08T03:11:22.151Z,101105.70
2023-05-08T03:13:33.707Z,101109.66
2023-05-08T03:15:48.512Z,101111.58
2023-05-08T03:18:00.433Z,101106.91
2023-05-08T03:20:14.128Z,101109.69
2023-05-08T03:22:26.497Z,101110.80
2023-05-08T03:24:39.732Z,101112.30
2023-05-08T03:26:49.648Z,101110.01
2023-05-08T03:29:01.064Z,101110.15
2023-05-08T03:31:17.148Z,101114.58
2023-05-08T03:33:28.279Z,101115.92
2023-05-08T03:35:39.764Z,101117.58
2023-05-08T03:37:51.830Z,101116.95
2023-05-08T03:40:01.769Z,101118.67
2023-05-08T03:42:21.683Z,101122.48
2023-05-08T03:44:32.935Z,101125.47
2023-05-08T03:46:44.163Z,101127.70
2023-05-08T03:48:55.014Z,101125.62
2023-05-08T03:51:06.122Z,101127.44
2023-05-08T03:53:18.066Z,101123.95
2023-05-08T03:55:28.145Z,101124.02
2023-05-08T03:57:42.343Z,101122.67
2023-05-08T04:00:00.930Z,101119.81
2023-05-08T04:02:21.648Z,101119.41
2023-05-08T04:04:40.357Z,101119.23
2023-05-08T04:06:58.457Z,101120.96
2023-05-08T04:09:29.105Z,101122.53
2023-05-08T04:11:44.038Z,101127.41
2023-05-08T04:14:02.667Z,101130.17
2023-05-08T04:16:19.552Z,101131.42
2023-05-08T04:18:32.878Z,101139.77
2023-05-08T04:20:44.553Z,101142.73
2023-05-08T04:22:59.579Z,101139.30
2023-05-08T04:25:11.403Z,101141.73
2023-05-08T04:27:21.497Z,101141.39
2023-05-08T04:29:31.409Z,101144.28
2023-05-08T04:31:42.370Z,101148.06
2023-05-08T04:33:52.019Z,101150.63
2023-05-08T04:36:03.806Z,101151.33
2023-05-08T04:38:13.799Z,101152.95
2023-05-08T04:40:23.607Z,101153.01
2023-05-08T04:42:33.869Z,101150.67
2023-05-08T04:44:43.344Z,101157.36
2023-05-08T04:46:52.624Z,101164.50
2023-05-08T04:49:01.767Z,101161.63
2023-05-08T04:51:11.384Z,101165.29
2023-05-08T04:53:21.365Z,101166.70
2023-05-08T04:55:31.189Z,101166.65
2023-05-08T04:57:40.463Z,101171.04
2023-05-08T04:59:49.782Z,101168.71
2023-05-08T05:01:59.306Z,101171.69
2023-05-08T05:04:08.886Z,101168.64
2023-05-08T05:06:18.338Z,101174.45
2023-05-08T05:08:27.632Z,101171.52
2023-05-08T05:10:37.532Z,101172.31
2023-05-08T05:12:47.359Z,101174.16
2023-05-08T05:14:57.166Z,101175.98
2023-05-08T05:17:06.601Z,101176.01
2023-05-08T05:19:15.817Z,101177.95
2023-05-08T05:21:25.351Z,101174.35
2023-05-08T05:23:35.204Z,101173.16
2023-05-08T05:25:44.346Z,101174.39
2023-05-08T05:27:53.496Z,101173.77
2023-05-08T05:30:02.750Z,101174.19
2023-05-08T05:32:13.339Z,101172.34
2023-05-08T05:34:22.829Z,101178.04
2023-05-08T05:36:31.978Z,101176.34
2023-05-08T05:38:41.809Z,101176.62
2023-05-08T05:40:51.312Z,101173.33
2023-05-08T05:43:00.564Z,101173.52
2023-05-08T05:45:12.214Z,101170.86
2023-05-08T05:47:21.846Z,101173.19
2023-05-08T05:49:31.272Z,101171.31
2023-05-08T05:51:40.713Z,101170.59
2023-05-08T05:53:51.085Z,101168.88
2023-05-08T05:56:00.686Z,101168.20
2023-05-08T05:58:09.807Z,101170.99
2023-05-08T06:00:21.542Z,101171.23
2023-05-08T06:02:34.241Z,101172.08
2023-05-08T06:04:43.922Z,101170.11
2023-05-08T06:06:53.024Z,101169.79
2023-05-08T06:09:02.212Z,101167.36
2023-05-08T06:11:11.727Z,101169.83
2023-05-08T06:13:21.328Z,101171.68
2023-05-08T06:15:30.682Z,101173.17
2023-05-08T06:17:39.976Z,101166.90
2023-05-08T06:19:50.875Z,101168.27
2023-05-08T06:22:00.001Z,101170.38
2023-05-08T06:24:10.174Z,101167.91
2023-05-08T06:26:21.527Z,101163.29
2023-05-08T06:28:29.884Z,101166.47
2023-05-08T06:30:39.156Z,101162.63
2023-05-08T06:32:48.526Z,101168.21
2023-05-08T06:34:57.951Z,101168.00
2023-05-08T06:37:07.091Z,101169.06
2023-05-08T06:39:16.576Z,101167.52
2023-05-08T06:41:25.705Z,101163.59
2023-05-08T06:43:35.017Z,101169.09
2023-05-08T06:45:45.084Z,101168.40
2023-05-08T06:47:54.238Z,101171.73
2023-05-08T06:50:03.994Z,101174.20
2023-05-08T06:52:13.430Z,101169.89
2023-05-08T06:54:22.969Z,101169.84
2023-05-08T06:56:32.076Z,101170.41
2023-05-08T06:58:41.171Z,101172.63
2023-05-08T07:00:50.510Z,101170.79
2023-05-08T07:02:59.667Z,101176.39
2023-05-08T07:05:10.642Z,101176.95
2023-05-08T07:07:20.090Z,101173.42
2023-05-08T07:09:29.521Z,101169.81
2023-05-08T07:11:38.976Z,101167.14
2023-05-08T07:13:49.006Z,101165.28
2023-05-08T07:15:58.227Z,101158.77
2023-05-08T07:18:07.695Z,101155.98
2023-05-08T07:20:17.266Z,101156.13
2023-05-08T07:22:26.507Z,101153.27
2023-05-08T07:24:36.508Z,101150.16
2023-05-08T07:26:45.940Z,101154.58
2023-05-08T07:28:55.352Z,101150.38
2023-05-08T07:31:08.523Z,101152.21
2023-05-08T07:33:17.925Z,101151.16
2023-05-08T07:35:27.309Z,101148.86
2023-05-08T07:37:36.611Z,101148.16
2023-05-08T07:39:47.823Z,101146.65
2023-05-08T07:41:56.937Z,101145.54
2023-05-08T07:44:06.158Z,101141.73
2023-05-08T07:46:21.294Z,101144.70
2023-05-08T07:48:30.520Z,101141.60
2023-05-08T07:50:39.703Z,101138.55
2023-05-08T07:52:51.541Z,101139.14
2023-05-08T07:55:01.251Z,101139.73
2023-05-08T07:57:10.489Z,101135.74
2023-05-08T07:59:19.812Z,101137.51
2023-05-08T08:01:28.956Z,101134.55
2023-05-08T08:03:38.209Z,101140.53
2023-05-08T08:05:47.714Z,101139.04
2023-05-08T08:07:56.761Z,101137.38
2023-05-08T08:10:08.261Z,101139.46
2023-05-08T08:12:17.738Z,101139.58
2023-05-08T08:14:26.879Z,101135.00
2023-05-08T08:16:36.106Z,101133.92
2023-05-08T08:18:45.509Z,101141.20
2023-05-08T08:20:54.620Z,101142.16
2023-05-08T08:23:04.090Z,101138.06
2023-05-08T08:25:14.754Z,101134.43
2023-05-08T08:27:24.103Z,101138.03
2023-05-08T08:29:33.746Z,101138.95
2023-05-08T08:31:43.091Z,101142.65
2023-05-08T08:33:52.718Z,101142.69
2023-05-08T08:36:01.837Z,101139.88
2023-05-08T08:38:10.892Z,101138.03
2023-05-08T08:40:20.286Z,101138.30
2023-05-08T08:42:29.378Z,101135.59
2023-05-08T08:44:39.974Z,101133.30
2023-05-08T08:46:54.334Z,101130.48
2023-05-08T08:49:09.214Z,101127.98
2023-05-08T08:51:26.451Z,101122.14
2023-05-08T08:53:44.808Z,101122.56
2023-05-08T08:55:57.601Z,101121.91
2023-05-08T08:58:16.437Z,101124.90
2023-05-08T09:00:30.202Z,101120.04
2023-05-08T09:02:39.925Z,101116.98
2023-05-08T09:04:51.113Z,101114.71
2023-05-08T09:07:00.168Z,101115.90
2023-05-08T09:09:09.301Z,101108.58
2023-05-08T09:11:18.654Z,101109.48
2023-05-08T09:13:27.954Z,101103.08
2023-05-08T09:15:37.303Z,101105.56
2023-05-08T09:17:46.817Z,101103.88
2023-05-08T09:19:56.586Z,101101.52
2023-05-08T09:22:09.600Z,101099.15
2023-05-08T09:24:18.781Z,101097.57
2023-05-08T09:26:37.035Z,101099.96
2023-05-08T09:28:46.526Z,101102.20
2023-05-08T09:30:59.260Z,101098.23
2023-05-08T09:33:06.664Z,101098.98
2023-05-08T09:35:16.430Z,101097.16
2023-05-08T09:37:26.673Z,101098.41
2023-05-08T09:39:35.977Z,101095.75
2023-05-08T09:42:01.071Z,101094.16
2023-05-08T09:44:10.555Z,101095.88
2023-05-08T09:46:29.111Z,101099.69
2023-05-08T09:48:46.202Z,101099.59
2023-05-08T09:51:09.312Z,101099.57
2023-05-08T09:53:18.687Z,101099.47
2023-05-08T09:55:28.085Z,101097.71
2023-05-08T09:57:39.693Z,101092.35
2023-05-08T09:59:49.205Z,101094.90
2023-05-08T10:02:18.592Z,101092.55
2023-05-08T10:04:38.202Z,101090.52
2023-05-08T10:07:07.124Z,101085.92
2023-05-08T10:09:28.895Z,101082.71
2023-05-08T10:12:05.755Z,101083.09
2023-05-08T10:14:20.866Z,101082.52
2023-05-08T10:16:52.188Z,101084.70
2023-05-08T10:19:22.252Z,101079.48
2023-05-08T10:21:52.370Z,101082.29
2023-05-08T10:24:23.855Z,101074.79
2023-05-08T10:27:07.485Z,101073.63
2023-05-08T10:29:54.021Z,101072.10
2023-05-08T10:32:25.266Z,101066.62
2023-05-08T10:34:43.372Z,101061.48
2023-05-08T10:37:13.657Z,101064.11
2023-05-08T10:39:44.696Z,101062.91
2023-05-08T10:42:15.375Z,101061.24
2023-05-08T10:44:33.644Z,101058.41
2023-05-08T10:47:02.041Z,101057.42
2023-05-08T10:49:22.216Z,101051.97
2023-05-08T10:51:49.375Z,101050.56
2023-05-08T10:54:29.254Z,101054.08
2023-05-08T10:57:11.912Z,101053.40
2023-05-08T10:59:46.728Z,101052.16
2023-05-08T11:02:16.838Z,101049.39
2023-05-08T11:04:46.266Z,101047.65
2023-05-08T11:07:15.835Z,101050.94
2023-05-08T11:09:32.120Z,101056.09
2023-05-08T11:11:52.698Z,101053.98
2023-05-08T11:14:18.098Z,101051.21
2023-05-08T11:17:10.774Z,101055.79
2023-05-08T11:19:28.750Z,101055.70
2023-05-08T11:22:23.393Z,101051.99
2023-05-08T11:24:42.722Z,101047.08
2023-05-08T11:26:54.799Z,101040.95
2023-05-08T11:29:24.030Z,101035.46
2023-05-08T11:31:57.450Z,101027.67
2023-05-08T11:34:06.782Z,101025.56
2023-05-08T11:36:38.274Z,101025.61
2023-05-08T11:39:07.988Z,101023.39
2023-05-08T11:41:37.391Z,101016.57
2023-05-08T11:44:21.432Z,101018.39
2023-05-08T11:46:55.139Z,101016.02
2023-05-08T11:49:20.406Z,101010.60
2023-05-08T11:51:45.576Z,101009.80
2023-05-08T11:54:05.190Z,101005.88
2023-05-08T11:56:18.115Z,101002.26
2023-05-08T11:58:37.821Z,100999.19
2023-05-08T12:01:02.678Z,100999.09
2023-05-08T12:03:16.368Z,100999.96
2023-05-08T12:05:46.425Z,100998.79
2023-05-08T12:08:16.727Z,101001.98
2023-05-08T12:10:29.327Z,100998.87
2023-05-08T12:12:58.676Z,100997.23
2023-05-08T12:15:16.526Z,101000.46
2023-05-08T12:17:46.431Z,101000.55
2023-05-08T12:20:11.215Z,101004.06
2023-05-08T12:22:23.725Z,101004.77
2023-05-08T12:24:34.613Z,101001.63
2023-05-08T12:26:55.143Z,101000.45
2023-05-08T12:29:20.613Z,100997.41
2023-05-08T12:31:47.812Z,100994.30
2023-05-08T12:34:10.522Z,100989.99
2023-05-08T12:36:40.627Z,100988.63
2023-05-08T12:39:18.236Z,100993.38
2023-05-08T12:41:43.178Z,100991.02
2023-05-08T12:44:22.151Z,100995.66
2023-05-08T12:46:51.241Z,100988.45
2023-05-08T12:49:34.553Z,100995.71
2023-05-08T12:51:51.743Z,100999.73
2023-05-08T12:54:11.075Z,101001.95
2023-05-08T12:56:30.217Z,101000.86
2023-05-08T12:58:42.649Z,101003.07
2023-05-08T13:01:14.546Z,100996.40
2023-05-08T13:03:36.738Z,100995.52
2023-05-08T13:06:02.081Z,100988.33
2023-05-08T13:08:17.362Z,100990.86
2023-05-08T13:10:51.228Z,100989.05
2023-05-08T13:13:10.803Z,100995.30
2023-05-08T13:15:40.862Z,100997.65
2023-05-08T13:18:01.204Z,100992.80
2023-05-08T13:20:14.808Z,100991.52
2023-05-08T13:22:44.308Z,100994.36
2023-05-08T13:25:15.179Z,100989.64
2023-05-08T13:27:24.786Z,100994.82
2023-05-08T13:29:54.227Z,100991.81
2023-05-08T13:32:06.780Z,100994.23
2023-05-08T13:34:37.765Z,100994.02
2023-05-08T13:37:04.438Z,100999.48
2023-05-08T13:39:13.789Z,101001.30
2023-05-08T13:41:33.220Z,101001.77
2023-05-08T13:43:42.864Z,100998.39
2023-05-08T13:45:52.546Z,100990.04
2023-05-08T13:48:08.439Z,100996.23
2023-05-08T13:50:22.567Z,100998.02
2023-05-08T13:52:54.698Z,100998.56
2023-05-08T13:55:25.332Z,100995.20
2023-05-08T13:57:46.030Z,100995.85
2023-05-08T13:59:58.641Z,100995.10
2023-05-08T14:02:28.381Z,100997.17
2023-05-08T14:04:58.389Z,100997.45
2023-05-08T14:07:18.824Z,100991.77
2023-05-08T14:09:45.211Z,100989.67
2023-05-08T14:12:04.871Z,100989.52
2023-05-08T14:14:34.622Z,100989.88
2023-05-08T14:17:04.208Z,100992.09
2023-05-08T14:19:33.514Z,100997.63
2023-05-08T14:22:02.880Z,100998.01
2023-05-08T14:24:32.188Z,100997.38
2023-05-08T14:26:45.214Z,100996.34
2023-05-08T14:29:14.482Z,100996.13
2023-05-08T14:31:44.165Z,100996.64
2023-05-08T14:34:06.454Z,101000.73
2023-05-08T14:36:35.807Z,101000.23
2023-05-08T14:38:55.114Z,100998.35
2023-05-08T14:41:14.366Z,101003.21
2023-05-08T14:43:44.307Z,100998.76
2023-05-08T14:45:58.554Z,100993.19
2023-05-08T14:48:28.734Z,100993.36
2023-05-08T14:50:41.446Z,100994.14
2023-05-08T14:53:10.908Z,100997.70
2023-05-08T14:55:41.025Z,100997.79
2023-05-08T14:58:10.498Z,101000.79
2023-05-08T15:00:40.137Z,101000.23
2023-05-08T15:03:09.749Z,100998.16
2023-05-08T15:05:39.414Z,101004.73
2023-05-08T15:08:10.036Z,101005.61
2023-05-08T15:10:39.834Z,101004.46
2023-05-08T15:13:09.203Z,101006.05
2023-05-08T15:15:21.519Z,101003.23
2023-05-08T15:17:30.961Z,101004.55
2023-05-08T15:19:40.412Z,101008.01
2023-05-08T15:22:00.745Z,101007.93
2023-05-08T15:24:13.712Z,101006.29
2023-05-08T15:26:33.097Z,101004.51
2023-05-08T15:28:52.825Z,100999.50
2023-05-08T15:31:07.434Z,101001.59
2023-05-08T15:33:26.094Z,101006.77
2023-05-08T15:35:45.661Z,101007.56
2023-05-08T15:38:15.099Z,101004.66
2023-05-08T15:40:35.928Z,101007.23
2023-05-08T15:42:48.760Z,101005.71
2023-05-08T15:45:02.333Z,101009.10
2023-05-08T15:47:31.794Z,101010.59
2023-05-08T15:50:01.197Z,101003.77
2023-05-08T15:52:30.665Z,101002.09
2023-05-08T15:54:49.382Z,101003.61
2023-05-08T15:57:08.744Z,101007.96
2023-05-08T15:59:18.401Z,101008.63
2023-05-08T16:01:47.879Z,101008.04
2023-05-08T16:04:17.660Z,101007.85
2023-05-08T16:06:47.333Z,101007.68
2023-05-08T16:09:06.726Z,101009.39
2023-05-08T16:11:37.043Z,101014.20
2023-05-08T16:14:06.506Z,101008.58
2023-05-08T16:16:36.126Z,101007.24
2023-05-08T16:18:45.690Z,101005.27
2023-05-08T16:20:58.753Z,101004.44
2023-05-08T16:23:28.201Z,101000.59
2023-05-08T16:25:57.462Z,101003.32
2023-05-08T16:28:27.363Z,100998.80
2023-05-08T16:30:47.880Z,100999.73
2023-05-08T16:33:08.235Z,101000.15
2023-05-08T16:35:37.421Z,100998.67
2023-05-08T16:37:50.757Z,100997.72
2023-05-08T16:40:20.508Z,100999.05
2023-05-08T16:42:50.417Z,100998.42
2023-05-08T16:44:59.838Z,100999.99
2023-05-08T16:47:29.304Z,101002.99
2023-05-08T16:49:38.753Z,101002.91
2023-05-08T16:51:48.251Z,101005.53
2023-05-08T16:54:19.825Z,101004.33
2023-05-08T16:56:38.151Z,101004.90
2023-05-08T16:58:58.624Z,101005.34
2023-05-08T17:01:27.958Z,101003.52
2023-05-08T17:03:57.527Z,101005.79
2023-05-08T17:06:15.998Z,101002.80
2023-05-08T17:08:35.519Z,101001.65
2023-05-08T17:11:05.008Z,101005.15
2023-05-08T17:13:34.798Z,101006.65
2023-05-08T17:16:04.315Z,101006.25
2023-05-08T17:18:33.895Z,101008.18
2023-05-08T17:20:52.759Z,101011.98
2023-05-08T17:23:01.986Z,101012.09
2023-05-08T17:25:14.453Z,101008.43
2023-05-08T17:27:35.145Z,101011.30
2023-05-08T17:30:04.500Z,101014.64
2023-05-08T17:32:17.276Z,101012.83
2023-05-08T17:34:46.625Z,101013.61
2023-05-08T17:36:59.068Z,101011.55
2023-05-08T17:39:28.391Z,101015.57
2023-05-08T17:41:51.992Z,101015.87
2023-05-08T17:44:22.196Z,101014.45
2023-05-08T17:46:35.401Z,101016.42
2023-05-08T17:49:04.768Z,101013.82
2023-05-08T17:51:34.297Z,101016.58
2023-05-08T17:53:47.214Z,101016.50
2023-05-08T17:56:05.575Z,101015.04
2023-05-08T17:58:21.669Z,101019.09
2023-05-08T18:00:30.982Z,101020.20
2023-05-08T18:02:40.515Z,101022.56
2023-05-08T18:05:11.372Z,101021.40
2023-05-08T18:07:30.989Z,101025.77
2023-05-08T18:09:43.164Z,101021.23
2023-05-08T18:12:12.634Z,101017.55
2023-05-08T18:14:44.612Z,101013.52
2023-05-08T18:17:15.903Z,101018.07
2023-05-08T18:19:26.366Z,101018.91
2023-05-08T18:21:49.184Z,101022.50
2023-05-08T18:23:58.783Z,101015.02
2023-05-08T18:26:18.677Z,101018.10
2023-05-08T18:28:31.062Z,101018.43
2023-05-08T18:30:51.280Z,101023.73
2023-05-08T18:33:03.734Z,101020.48
2023-05-08T18:35:17.129Z,101023.02
2023-05-08T18:37:37.458Z,101019.36
2023-05-08T18:39:46.959Z,101016.38
2023-05-08T18:42:15.095Z,101016.04
2023-05-08T18:44:27.662Z,101016.22
2023-05-08T18:46:48.545Z,101010.98
2023-05-08T18:48:58.157Z,101012.03
2023-05-08T18:51:07.600Z,101011.23
2023-05-08T18:53:26.516Z,101008.52
2023-05-08T18:55:58.943Z,101009.44
2023-05-08T18:58:28.848Z,101011.00
2023-05-08T19:00:38.273Z,101012.00
2023-05-08T19:02:47.479Z,101011.03
2023-05-08T19:05:16.973Z,101006.08
2023-05-08T19:07:36.861Z,101009.39
2023-05-08T19:09:58.186Z,101002.45
2023-05-08T19:12:21.681Z,101004.37
2023-05-08T19:14:42.537Z,101004.73
2023-05-08T19:16:58.386Z,101003.05
2023-05-08T19:19:26.011Z,101002.09
2023-05-08T19:21:35.419Z,100999.17
2023-05-08T19:23:45.036Z,100998.97
2023-05-08T19:26:07.215Z,100996.28
2023-05-08T19:28:25.794Z,100997.56
2023-05-08T19:30:35.193Z,100995.48
2023-05-08T19:32:55.613Z,100989.81
2023-05-08T19:35:25.082Z,100988.56
2023-05-08T19:37:34.448Z,100990.98
2023-05-08T19:39:54.201Z,100988.23
2023-05-08T19:42:14.204Z,100980.47
2023-05-08T19:44:33.184Z,100983.75
2023-05-08T19:46:54.346Z,100985.23
2023-05-08T19:49:03.593Z,100983.61
2023-05-08T19:51:32.764Z,100980.41
2023-05-08T19:54:02.087Z,100980.90
2023-05-08T19:56:25.474Z,100981.08
2023-05-08T19:58:58.122Z,100977.02
2023-05-08T20:01:27.988Z,100976.38
2023-05-08T20:03:59.044Z,100972.61
2023-05-08T20:06:21.218Z,100969.86
2023-05-08T20:08:50.695Z,100974.81
2023-05-08T20:11:22.371Z,100975.73
2023-05-08T20:13:53.976Z,100971.17
2023-05-08T20:16:03.514Z,100977.85
2023-05-08T20:18:24.888Z,100981.11
2023-05-08T20:20:45.408Z,100976.80
2023-05-08T20:23:04.787Z,100977.27
2023-05-08T20:25:14.318Z,100973.36
2023-05-08T20:27:43.888Z,100971.61
2023-05-08T20:29:57.861Z,100971.62
2023-05-08T20:32:27.456Z,100970.05
2023-05-08T20:34:56.836Z,100969.27
2023-05-08T20:37:26.355Z,100964.85
2023-05-08T20:39:55.970Z,100963.98
2023-05-08T20:42:15.333Z,100963.48
2023-05-08T20:44:24.825Z,100965.55
2023-05-08T20:46:54.462Z,100962.45
2023-05-08T20:49:24.611Z,100961.22
2023-05-08T20:51:54.129Z,100958.14
2023-05-08T20:54:24.154Z,100955.11
2023-05-08T20:56:53.419Z,100952.34
2023-05-08T20:59:23.843Z,100954.24
2023-05-08T21:01:42.889Z,100951.25
2023-05-08T21:03:52.209Z,100951.20
2023-05-08T21:06:21.502Z,100951.64
2023-05-08T21:08:51.508Z,100949.45
2023-05-08T21:11:21.519Z,100948.63
2023-05-08T21:13:50.854Z,100948.57
2023-05-08T21:16:20.707Z,100949.31
2023-05-08T21:18:41.100Z,100948.02
2023-05-08T21:21:18.317Z,100951.08
2023-05-08T21:23:37.526Z,100948.69
2023-05-08T21:26:06.968Z,100951.64
2023-05-08T21:28:16.775Z,100954.16
2023-05-08T21:30:47.895Z,100950.85
2023-05-08T21:33:17.484Z,100952.48
2023-05-08T21:35:29.731Z,100953.05
2023-05-08T21:37:59.334Z,100952.20
2023-05-08T21:40:13.120Z,100957.34
2023-05-08T21:42:43.201Z,100953.86
2023-05-08T21:44:52.712Z,100953.79
2023-05-08T21:47:22.810Z,100955.98
2023-05-08T21:49:52.044Z,100955.80
2023-05-08T21:52:22.856Z,100945.29
2023-05-08T21:54:52.809Z,100954.95
2023-05-08T21:57:22.238Z,100956.85
2023-05-08T21:59:42.758Z,100955.55
2023-05-08T22:02:12.478Z,100956.71
2023-05-08T22:04:41.877Z,100958.35
2023-05-08T22:06:51.175Z,100956.30
2023-05-08T22:09:20.508Z,100955.38
2023-05-08T22:11:40.875Z,100954.83
2023-05-08T22:14:10.143Z,100957.58
2023-05-08T22:16:19.756Z,100952.85
2023-05-08T22:18:49.236Z,100951.14
2023-05-08T22:21:18.661Z,100950.92
2023-05-08T22:23:31.742Z,100948.26
2023-05-08T22:25:51.227Z,100948.02
2023-05-08T22:28:20.565Z,100947.33
2023-05-08T22:30:49.929Z,100951.85
2023-05-08T22:33:19.359Z,100950.52
2023-05-08T22:35:48.746Z,100948.94
2023-05-08T22:38:18.220Z,100953.85
2023-05-08T22:40:48.077Z,100955.84
2023-05-08T22:42:59.064Z,100959.29
2023-05-08T22:45:28.860Z,100958.02
2023-05-08T22:47:58.538Z,100961.73
2023-05-08T22:50:28.100Z,100959.02
2023-05-08T22:52:57.432Z,100959.05
2023-05-08T22:55:27.614Z,100959.60
2023-05-08T22:57:56.993Z,100963.73
2023-05-08T23:00:18.265Z,100965.95
2023-05-08T23:02:35.047Z,100967.86
2023-05-08T23:05:05.137Z,100966.36
2023-05-08T23:07:18.246Z,100966.76
2023-05-08T23:09:47.779Z,100969.78
2023-05-08T23:12:17.226Z,100963.86
2023-05-08T23:14:46.391Z,100963.83
2023-05-08T23:17:05.943Z,100977.98
2023-05-08T23:19:20.055Z,100974.09
2023-05-08T23:21:33.149Z,100982.11
2023-05-08T23:23:53.179Z,100981.79
2023-05-08T23:26:23.286Z,100997.35
2023-05-08T23:28:43.732Z,101005.29
2023-05-08T23:31:11.799Z,101008.08
2023-05-08T23:33:31.794Z,101016.39
2023-05-08T23:36:01.642Z,101018.66
2023-05-08T23:38:11.257Z,101026.83
2023-05-08T23:40:30.706Z,101029.58
2023-05-08T23:42:53.156Z,101027.09
2023-05-08T23:45:22.707Z,101031.86
2023-05-08T23:47:52.009Z,101032.40
2023-05-08T23:50:21.831Z,101032.77
2023-05-08T23:52:35.010Z,101038.36
2023-05-08T23:55:04.602Z,101043.02
2023-05-08T23:57:34.360Z,101042.56
